Time;durP1;ratioP1;P1;durP2;ratioP2;P2;SDS_P1;SDS_P2;PMS_P1;PMS_P2;Temp;Humidity;BMP_temperature;BMP_pressure;BME280_temperature;BME280_humidity;BME280_pressure;Samples;Min_cycle;Max_cycle;Signal;HPM_P1;HPM_P2
2023/12/24 00:01:54;;;;;;;2.30;2.10;;;4.10;99.90;;;;;;5071945;28;20234;-55
2023/12/24 00:04:20;;;;;;;2.70;2.50;;;4.10;99.90;;;;;;5069381;28;20867;-57
2023/12/24 00:06:47;;;;;;;2.40;2.20;;;4.10;99.90;;;;;;5042627;28;22356;-55
2023/12/24 00:09:14;;;;;;;2.60;1.73;;;4.10;99.90;;;;;;5080973;28;20199;-56
2023/12/24 00:11:41;;;;;;;2.67;2.10;;;4.10;99.90;;;;;;5060719;28;20233;-59
2023/12/24 00:14:07;;;;;;;3.13;1.90;;;4.10;99.90;;;;;;5073494;28;20742;-56
2023/12/24 00:16:34;;;;;;;6.23;2.50;;;4.10;99.90;;;;;;5075386;28;20551;-59
2023/12/24 00:19:02;;;;;;;2.27;2.07;;;4.10;99.90;;;;;;5078835;28;20198;-58
2023/12/24 00:21:28;;;;;;;2.13;1.50;;;4.10;99.90;;;;;;5076544;28;20236;-58
2023/12/24 00:23:55;;;;;;;2.47;1.93;;;4.10;99.90;;;;;;5055031;28;20201;-58
2023/12/24 00:26:22;;;;;;;3.00;1.63;;;4.10;99.90;;;;;;5082933;28;20209;-55
2023/12/24 00:28:50;;;;;;;2.63;1.93;;;4.10;99.90;;;;;;5077413;28;20248;-57
2023/12/24 00:31:17;;;;;;;1.80;1.63;;;4.10;99.90;;;;;;5081878;28;20279;-58
2023/12/24 00:33:44;;;;;;;2.03;1.80;;;4.10;99.90;;;;;;5073977;28;20189;-56
2023/12/24 00:36:12;;;;;;;1.43;1.20;;;4.10;99.90;;;;;;5077891;28;20584;-54
2023/12/24 00:38:39;;;;;;;2.63;1.70;;;4.10;99.90;;;;;;5055693;28;20203;-58
2023/12/24 00:41:06;;;;;;;1.83;1.47;;;4.00;99.90;;;;;;5093301;28;20214;-57
2023/12/24 00:43:33;;;;;;;1.50;1.40;;;4.10;99.90;;;;;;5079710;28;20186;-56
2023/12/24 00:45:59;;;;;;;1.47;1.37;;;4.10;99.90;;;;;;5077435;28;20909;-58
2023/12/24 00:48:27;;;;;;;1.97;1.17;;;4.10;99.90;;;;;;5110554;27;20196;-59
2023/12/24 00:50:53;;;;;;;2.43;1.70;;;4.10;99.90;;;;;;5082913;28;20226;-57
2023/12/24 00:53:21;;;;;;;3.50;1.70;;;4.10;99.90;;;;;;5081849;28;20194;-58
2023/12/24 00:55:48;;;;;;;1.70;1.60;;;4.10;99.90;;;;;;5047716;28;20230;-58
2023/12/24 00:58:17;;;;;;;2.27;1.40;;;4.10;99.90;;;;;;5074477;28;20197;-59
2023/12/24 01:00:46;;;;;;;1.60;1.43;;;4.10;99.90;;;;;;5075998;28;20230;-57
2023/12/24 01:03:13;;;;;;;1.00;1.00;;;4.10;99.90;;;;;;5072884;28;20207;-58
2023/12/24 01:05:40;;;;;;;1.10;1.00;;;4.10;99.90;;;;;;5063622;28;20302;-58
2023/12/24 01:08:07;;;;;;;1.50;1.40;;;4.20;99.90;;;;;;5070999;28;20848;-59
2023/12/24 01:10:35;;;;;;;1.30;1.07;;;4.10;99.90;;;;;;5049401;28;20242;-58
2023/12/24 01:13:02;;;;;;;1.50;1.40;;;4.20;99.90;;;;;;5082972;28;20217;-58
2023/12/24 01:15:29;;;;;;;1.67;1.57;;;4.20;99.90;;;;;;5094625;28;20262;-56
2023/12/24 01:17:56;;;;;;;1.47;1.37;;;4.20;99.90;;;;;;5074753;28;20665;-57
2023/12/24 01:20:23;;;;;;;2.40;1.80;;;4.20;99.90;;;;;;5079642;28;20277;-57
2023/12/24 01:22:50;;;;;;;1.67;1.57;;;4.20;99.90;;;;;;5072407;28;20201;-57
2023/12/24 01:25:17;;;;;;;1.60;1.50;;;4.20;99.90;;;;;;5059679;28;20228;-58
2023/12/24 01:27:45;;;;;;;2.23;1.77;;;4.20;99.90;;;;;;5080716;28;20214;-56
2023/12/24 01:30:12;;;;;;;1.97;1.87;;;4.30;99.90;;;;;;5082348;28;20625;-58
2023/12/24 01:32:39;;;;;;;1.53;1.43;;;4.30;99.90;;;;;;5074574;28;20197;-57
2023/12/24 01:35:06;;;;;;;2.70;1.80;;;4.30;99.90;;;;;;5075666;28;20285;-56
2023/12/24 01:37:33;;;;;;;2.00;1.80;;;4.30;99.90;;;;;;5078053;28;20277;-56
2023/12/24 01:40:00;;;;;;;2.23;2.03;;;4.30;99.90;;;;;;5084842;28;20259;-58
2023/12/24 01:42:27;;;;;;;2.40;2.20;;;4.30;99.90;;;;;;5065884;28;20198;-55
2023/12/24 01:44:55;;;;;;;2.83;2.50;;;4.30;99.90;;;;;;5082561;28;20205;-57
2023/12/24 01:47:22;;;;;;;2.67;2.13;;;4.40;99.90;;;;;;5068725;28;20313;-57
2023/12/24 01:49:50;;;;;;;3.20;2.90;;;4.40;99.90;;;;;;5085520;28;20194;-56
2023/12/24 01:52:18;;;;;;;4.40;2.97;;;4.50;99.90;;;;;;5079994;28;20563;-57
2023/12/24 01:54:48;;;;;;;3.53;3.23;;;4.50;99.90;;;;;;5081988;28;20198;-57
2023/12/24 01:57:16;;;;;;;3.83;3.43;;;4.60;99.90;;;;;;5055464;28;20218;-57
2023/12/24 01:59:43;;;;;;;3.30;2.93;;;4.70;99.90;;;;;;5074598;28;20210;-57
2023/12/24 02:02:13;;;;;;;3.57;3.27;;;4.70;99.90;;;;;;5063880;28;20218;-58
2023/12/24 02:04:41;;;;;;;4.83;3.50;;;4.70;99.90;;;;;;5074328;28;20198;-53
2023/12/24 02:07:10;;;;;;;5.77;3.47;;;4.80;99.90;;;;;;5081507;28;20241;-57
2023/12/24 02:09:37;;;;;;;4.37;3.97;;;4.80;99.90;;;;;;5069183;28;20179;-56
2023/12/24 02:12:04;;;;;;;5.20;4.70;;;4.90;99.90;;;;;;5058117;28;20253;-56
2023/12/24 02:14:30;;;;;;;5.90;4.47;;;4.90;99.90;;;;;;5068526;28;20186;-55
2023/12/24 02:16:59;;;;;;;5.17;4.13;;;5.00;99.90;;;;;;5081162;28;20194;-55
2023/12/24 02:19:27;;;;;;;6.73;4.90;;;5.00;99.90;;;;;;5070771;28;20194;-57
2023/12/24 02:21:55;;;;;;;5.83;4.93;;;5.00;99.90;;;;;;5072131;28;20275;-58
2023/12/24 02:24:22;;;;;;;5.50;4.80;;;5.10;99.90;;;;;;5075568;28;20616;-58
2023/12/24 02:26:58;;;;;;;6.77;5.20;;;5.20;99.90;;;;;;5080831;28;20210;-54
2023/12/24 02:29:30;;;;;;;4.37;3.73;;;5.20;99.90;;;;;;5054655;28;20193;-52
2023/12/24 02:32:03;;;;;;;4.80;3.77;;;5.50;99.90;;;;;;5076925;28;20213;-55
2023/12/24 02:34:32;;;;;;;3.93;3.50;;;5.70;99.90;;;;;;5064626;28;21014;-57
2023/12/24 02:37:01;;;;;;;3.80;2.80;;;6.00;99.90;;;;;;5078255;28;20194;-56
2023/12/24 02:39:27;;;;;;;4.07;2.57;;;6.20;99.90;;;;;;5077982;28;20189;-56
2023/12/24 02:41:54;;;;;;;0.93;0.80;;;6.30;99.90;;;;;;5079692;28;20696;-56
2023/12/24 02:44:21;;;;;;;0.50;0.50;;;6.70;99.90;;;;;;5052005;28;20267;-57
2023/12/24 02:46:48;;;;;;;0.30;0.30;;;7.00;99.90;;;;;;5073152;28;20750;-56
2023/12/24 02:49:15;;;;;;;0.30;0.20;;;7.20;99.90;;;;;;5069061;28;20292;-58
2023/12/24 02:51:42;;;;;;;0.30;0.20;;;7.40;99.90;;;;;;5071573;28;20210;-56
2023/12/24 02:54:10;;;;;;;0.30;0.27;;;7.50;99.90;;;;;;5072372;28;20182;-58
2023/12/24 02:56:37;;;;;;;0.30;0.20;;;7.60;99.90;;;;;;5068853;28;20194;-59
2023/12/24 02:59:04;;;;;;;0.10;0.10;;;7.80;99.90;;;;;;5049704;28;20214;-58
2023/12/24 03:01:31;;;;;;;0.70;0.40;;;7.90;99.90;;;;;;5079398;28;20229;-58
2023/12/24 03:03:58;;;;;;;0.30;0.30;;;7.90;99.90;;;;;;5066717;28;20271;-57
2023/12/24 03:06:25;;;;;;;0.33;0.30;;;7.90;99.90;;;;;;5068576;28;20217;-57
2023/12/24 03:08:52;;;;;;;0.17;0.17;;;8.00;99.90;;;;;;5069727;28;20264;-57
2023/12/24 03:11:20;;;;;;;0.20;0.20;;;8.00;99.90;;;;;;5064591;28;20224;-58
2023/12/24 03:13:47;;;;;;;1.90;0.30;;;8.10;99.90;;;;;;5053426;28;20214;-57
2023/12/24 03:16:14;;;;;;;0.17;0.17;;;8.10;99.90;;;;;;5074243;28;20198;-58
2023/12/24 03:18:41;;;;;;;0.73;0.23;;;8.10;99.90;;;;;;5068712;28;20194;-57
2023/12/24 03:21:08;;;;;;;0.37;0.10;;;8.20;99.90;;;;;;5069559;28;20276;-57
2023/12/24 03:23:35;;;;;;;0.20;0.20;;;8.20;99.90;;;;;;5066916;28;20392;-56
2023/12/24 03:26:02;;;;;;;0.10;0.10;;;8.20;99.90;;;;;;5071842;28;20673;-53
2023/12/24 03:28:31;;;;;;;0.10;0.10;;;8.30;99.90;;;;;;5046059;28;20229;-56
2023/12/24 03:30:58;;;;;;;0.17;0.17;;;8.20;99.90;;;;;;5072839;28;20226;-57
2023/12/24 03:33:25;;;;;;;0.10;0.10;;;8.20;99.90;;;;;;5066346;28;20250;-57
2023/12/24 03:35:51;;;;;;;0.03;0.00;;;8.30;99.90;;;;;;5065085;28;20666;-56
2023/12/24 03:38:20;;;;;;;0.10;0.10;;;8.30;99.90;;;;;;5066884;28;20232;-58
2023/12/24 03:40:47;;;;;;;0.20;0.17;;;8.30;99.90;;;;;;5072800;28;20237;-57
2023/12/24 03:43:14;;;;;;;0.20;0.20;;;8.30;99.90;;;;;;5069423;28;20209;-58
2023/12/24 03:45:42;;;;;;;0.20;0.20;;;8.40;99.90;;;;;;5045899;28;20358;-57
2023/12/24 03:48:11;;;;;;;0.10;0.10;;;8.30;99.90;;;;;;5070065;28;20206;-58
2023/12/24 03:50:39;;;;;;;0.20;0.20;;;8.40;99.90;;;;;;5065612;28;20221;-57
2023/12/24 03:53:07;;;;;;;0.30;0.13;;;8.40;99.90;;;;;;5072547;28;20195;-58
2023/12/24 03:55:33;;;;;;;0.10;0.10;;;8.40;99.90;;;;;;5071387;28;21144;-57
2023/12/24 03:58:01;;;;;;;0.20;0.20;;;8.40;99.90;;;;;;5066995;28;20277;-58
2023/12/24 04:00:28;;;;;;;0.43;0.43;;;8.40;99.90;;;;;;5048974;28;20351;-56
2023/12/24 04:02:56;;;;;;;0.40;0.40;;;8.40;99.90;;;;;;5072749;28;20202;-56
2023/12/24 04:05:24;;;;;;;0.23;0.10;;;8.40;99.90;;;;;;5062104;28;21453;-57
2023/12/24 04:07:50;;;;;;;0.10;0.10;;;8.40;99.90;;;;;;5077941;28;20202;-56
2023/12/24 04:10:17;;;;;;;0.10;0.10;;;8.40;99.90;;;;;;5063525;28;20569;-59
2023/12/24 04:12:44;;;;;;;0.87;0.20;;;8.40;99.90;;;;;;5074525;28;20198;-57
2023/12/24 04:15:11;;;;;;;0.17;0.10;;;8.40;99.90;;;;;;5063393;28;20191;-59
2023/12/24 04:17:39;;;;;;;0.30;0.20;;;8.50;99.90;;;;;;5068585;28;20224;-56
2023/12/24 04:20:08;;;;;;;0.27;0.20;;;8.40;99.90;;;;;;5069346;28;20224;-58
2023/12/24 04:22:35;;;;;;;0.20;0.20;;;8.50;99.90;;;;;;5064026;28;20264;-55
2023/12/24 04:25:02;;;;;;;0.87;0.27;;;8.50;99.90;;;;;;5073385;28;20603;-56
2023/12/24 04:27:29;;;;;;;0.20;0.20;;;8.50;99.90;;;;;;5063788;28;20364;-55
2023/12/24 04:29:56;;;;;;;0.67;0.50;;;8.50;99.90;;;;;;5065851;28;20218;-56
2023/12/24 04:32:22;;;;;;;0.67;0.37;;;8.60;99.90;;;;;;5040252;28;20198;-58
2023/12/24 04:34:50;;;;;;;0.70;0.30;;;8.60;99.90;;;;;;5067622;28;20218;-57
2023/12/24 04:37:18;;;;;;;0.30;0.27;;;8.50;99.90;;;;;;5066697;28;20221;-57
2023/12/24 04:39:45;;;;;;;0.37;0.30;;;8.60;99.90;;;;;;5077626;28;20248;-57
2023/12/24 04:42:12;;;;;;;0.83;0.20;;;8.50;99.90;;;;;;5074661;28;20190;-57
2023/12/24 04:44:39;;;;;;;0.10;0.10;;;8.60;99.90;;;;;;5069827;28;20966;-57
2023/12/24 04:47:08;;;;;;;2.43;0.20;;;8.60;99.90;;;;;;5046867;28;20587;-58
2023/12/24 04:49:35;;;;;;;0.20;0.20;;;8.60;99.90;;;;;;5083112;28;20250;-54
2023/12/24 04:52:02;;;;;;;0.37;0.20;;;8.60;99.90;;;;;;5073907;28;20202;-56
2023/12/24 04:54:31;;;;;;;0.30;0.23;;;8.60;99.90;;;;;;5076471;28;20198;-57
2023/12/24 04:56:59;;;;;;;0.30;0.23;;;8.60;99.90;;;;;;5070196;28;20190;-56
2023/12/24 04:59:25;;;;;;;0.20;0.20;;;8.50;99.90;;;;;;5071231;28;20263;-56
2023/12/24 05:01:52;;;;;;;0.77;0.40;;;8.50;99.90;;;;;;5081217;28;20267;-55
2023/12/24 05:04:19;;;;;;;0.30;0.10;;;8.60;99.90;;;;;;5054081;28;20202;-59
2023/12/24 05:06:46;;;;;;;0.37;0.20;;;8.60;99.90;;;;;;5075762;28;20236;-52
2023/12/24 05:09:13;;;;;;;0.10;0.10;;;8.60;99.90;;;;;;5076307;28;20206;-58
2023/12/24 05:11:41;;;;;;;0.20;0.10;;;8.60;99.90;;;;;;5076798;28;20229;-58
2023/12/24 05:14:08;;;;;;;0.60;0.20;;;8.60;99.90;;;;;;5090457;28;20220;-58
2023/12/24 05:16:35;;;;;;;1.37;0.30;;;8.60;99.90;;;;;;5095537;28;20976;-56
2023/12/24 05:19:01;;;;;;;0.73;0.40;;;8.60;99.90;;;;;;5061794;28;20206;-57
2023/12/24 05:21:29;;;;;;;0.13;0.13;;;8.60;99.90;;;;;;5071719;28;21025;-56
2023/12/24 05:23:57;;;;;;;0.20;0.20;;;8.70;99.90;;;;;;5067676;28;20202;-57
2023/12/24 05:26:24;;;;;;;0.23;0.10;;;8.70;99.90;;;;;;5082090;28;20282;-57
2023/12/24 05:28:54;;;;;;;0.23;0.20;;;8.60;99.90;;;;;;5070584;28;20206;-57
2023/12/24 05:31:20;;;;;;;0.20;0.20;;;8.70;99.90;;;;;;5072673;28;20220;-58
2023/12/24 05:33:47;;;;;;;0.20;0.20;;;8.70;99.90;;;;;;5049017;28;20218;-58
2023/12/24 05:36:14;;;;;;;0.77;0.20;;;8.70;99.90;;;;;;5074996;28;20262;-58
2023/12/24 05:38:41;;;;;;;0.20;0.20;;;8.70;99.90;;;;;;5068247;28;20206;-57
2023/12/24 05:41:10;;;;;;;0.30;0.20;;;8.70;99.90;;;;;;5089131;28;20210;-58
2023/12/24 05:43:37;;;;;;;0.30;0.30;;;8.70;99.90;;;;;;5081777;28;20192;-57
2023/12/24 05:46:10;;;;;;;0.23;0.23;;;8.70;99.90;;;;;;5073018;28;20252;-58
2023/12/24 05:48:37;;;;;;;0.30;0.30;;;8.70;99.90;;;;;;5082682;28;20213;-57
2023/12/24 05:51:04;;;;;;;0.20;0.20;;;8.70;99.90;;;;;;5060315;28;20241;-58
2023/12/24 05:53:31;;;;;;;0.40;0.27;;;8.70;99.90;;;;;;5084497;28;20244;-57
2023/12/24 05:55:59;;;;;;;0.20;0.20;;;8.70;99.90;;;;;;5077580;28;20245;-57
2023/12/24 05:58:25;;;;;;;0.20;0.20;;;8.70;99.90;;;;;;5077684;28;20206;-58
2023/12/24 06:00:52;;;;;;;0.20;0.20;;;8.80;99.90;;;;;;5090182;28;20902;-56
2023/12/24 06:03:20;;;;;;;0.27;0.20;;;8.70;99.90;;;;;;5078432;28;20602;-63
2023/12/24 06:05:47;;;;;;;0.17;0.17;;;8.70;99.90;;;;;;5064213;28;20210;-56
2023/12/24 06:08:16;;;;;;;0.50;0.20;;;8.80;99.90;;;;;;5083766;28;20217;-59
2023/12/24 06:10:43;;;;;;;0.10;0.10;;;8.70;99.90;;;;;;5072337;28;20208;-57
2023/12/24 06:13:10;;;;;;;0.37;0.20;;;8.70;99.90;;;;;;5091439;28;20201;-60
2023/12/24 06:15:37;;;;;;;0.20;0.20;;;8.80;99.90;;;;;;5096950;28;20215;-55
2023/12/24 06:18:04;;;;;;;0.20;0.20;;;8.80;99.90;;;;;;5092069;28;20189;-57
2023/12/24 06:20:33;;;;;;;0.20;0.20;;;8.80;99.90;;;;;;5065552;28;22362;-58
2023/12/24 06:23:00;;;;;;;0.20;0.20;;;8.80;99.90;;;;;;5067994;28;20190;-58
2023/12/24 06:25:26;;;;;;;0.30;0.30;;;8.80;99.90;;;;;;5059612;28;20206;-58
2023/12/24 06:27:53;;;;;;;0.20;0.20;;;8.80;99.90;;;;;;5075055;28;20233;-58
2023/12/24 06:30:20;;;;;;;0.30;0.30;;;8.80;99.90;;;;;;5074968;28;20206;-58
2023/12/24 06:32:47;;;;;;;0.20;0.20;;;8.80;99.90;;;;;;5071772;28;20189;-57
2023/12/24 06:35:15;;;;;;;0.10;0.10;;;8.80;99.90;;;;;;5072879;28;20194;-58
2023/12/24 06:37:43;;;;;;;0.10;0.10;;;8.80;99.90;;;;;;5052409;28;20273;-58
2023/12/24 06:40:11;;;;;;;0.20;0.20;;;8.80;99.90;;;;;;5081825;28;20222;-59
2023/12/24 06:42:37;;;;;;;0.27;0.20;;;8.90;99.90;;;;;;5086153;28;20202;-57
2023/12/24 06:45:05;;;;;;;0.10;0.10;;;8.90;99.90;;;;;;5076332;28;20346;-57
2023/12/24 06:47:32;;;;;;;0.10;0.10;;;8.80;99.90;;;;;;5081337;28;20976;-58
2023/12/24 06:49:59;;;;;;;0.27;0.20;;;8.90;99.90;;;;;;5086485;28;20293;-57
2023/12/24 06:52:25;;;;;;;0.37;0.20;;;8.90;99.90;;;;;;5059680;28;20218;-57
2023/12/24 06:54:53;;;;;;;0.23;0.13;;;8.90;99.90;;;;;;5088657;28;20201;-59
2023/12/24 06:57:20;;;;;;;0.30;0.30;;;8.90;99.90;;;;;;5069293;28;20765;-59
2023/12/24 06:59:47;;;;;;;0.20;0.20;;;8.90;99.90;;;;;;5093460;28;20208;-58
2023/12/24 07:02:14;;;;;;;0.20;0.20;;;8.90;99.90;;;;;;5091862;28;20201;-59
2023/12/24 07:04:41;;;;;;;0.20;0.20;;;8.90;99.90;;;;;;5090817;28;20189;-57
2023/12/24 07:07:07;;;;;;;0.30;0.20;;;8.90;99.90;;;;;;5072857;28;20197;-59
2023/12/24 07:09:34;;;;;;;0.53;0.20;;;8.90;99.90;;;;;;5068017;28;20221;-59
2023/12/24 07:12:02;;;;;;;0.20;0.20;;;8.90;99.90;;;;;;5090242;28;20220;-57
2023/12/24 07:14:29;;;;;;;0.17;0.17;;;8.90;99.90;;;;;;5077064;28;20260;-56
2023/12/24 07:16:56;;;;;;;0.10;0.10;;;8.90;99.90;;;;;;5088798;28;20672;-58
2023/12/24 07:19:23;;;;;;;0.20;0.20;;;9.00;99.90;;;;;;5077048;28;20282;-57
2023/12/24 07:21:50;;;;;;;0.30;0.17;;;8.90;99.90;;;;;;5069035;28;20259;-57
2023/12/24 07:24:16;;;;;;;0.40;0.40;;;9.00;99.90;;;;;;5045896;28;20292;-59
2023/12/24 07:26:43;;;;;;;1.13;0.20;;;8.90;99.90;;;;;;5070974;28;20194;-55
2023/12/24 07:29:11;;;;;;;0.40;0.40;;;9.00;99.90;;;;;;5069448;28;20214;-59
2023/12/24 07:31:38;;;;;;;0.30;0.30;;;9.00;99.90;;;;;;5077861;28;20206;-58
2023/12/24 07:34:05;;;;;;;0.40;0.40;;;9.00;99.90;;;;;;5072569;28;20714;-59
2023/12/24 07:36:32;;;;;;;0.43;0.43;;;9.00;99.90;;;;;;5077504;28;20334;-57
2023/12/24 07:38:59;;;;;;;0.50;0.50;;;9.00;99.90;;;;;;5076952;28;20194;-59
2023/12/24 07:41:26;;;;;;;0.27;0.27;;;9.10;99.90;;;;;;5050813;28;20220;-58
2023/12/24 07:43:53;;;;;;;0.30;0.20;;;9.00;99.90;;;;;;5073485;28;20218;-59
2023/12/24 07:46:21;;;;;;;0.30;0.30;;;9.00;99.90;;;;;;5075504;28;20195;-59
2023/12/24 07:48:48;;;;;;;0.30;0.30;;;9.10;99.90;;;;;;5081369;28;20758;-58
2023/12/24 07:51:15;;;;;;;0.97;0.67;;;9.10;99.90;;;;;;5079647;28;20234;-59
2023/12/24 07:53:42;;;;;;;0.30;0.30;;;9.10;99.90;;;;;;5090021;28;20715;-59
2023/12/24 07:56:10;;;;;;;0.33;0.33;;;9.10;99.90;;;;;;5057305;28;20229;-59
2023/12/24 07:58:37;;;;;;;0.30;0.30;;;9.10;99.90;;;;;;5072851;28;20186;-58
2023/12/24 08:01:04;;;;;;;1.00;0.47;;;9.10;99.90;;;;;;5079468;28;20248;-59
2023/12/24 08:03:32;;;;;;;0.60;0.40;;;9.10;99.90;;;;;;5089843;28;20414;-58
2023/12/24 08:05:59;;;;;;;0.30;0.30;;;9.10;99.90;;;;;;5083599;28;20201;-57
2023/12/24 08:08:26;;;;;;;0.30;0.30;;;9.20;99.90;;;;;;5081356;28;20887;-58
2023/12/24 08:10:53;;;;;;;0.77;0.40;;;9.20;99.90;;;;;;5059447;28;20222;-57
2023/12/24 08:13:20;;;;;;;0.50;0.50;;;9.20;99.90;;;;;;5062822;28;20213;-56
2023/12/24 08:15:47;;;;;;;0.20;0.20;;;9.20;99.90;;;;;;5068315;28;20282;-55
2023/12/24 08:18:15;;;;;;;0.30;0.30;;;9.20;99.90;;;;;;5081715;28;20194;-59
2023/12/24 08:20:43;;;;;;;0.20;0.20;;;9.20;99.90;;;;;;5067024;28;20225;-60
2023/12/24 08:23:10;;;;;;;0.47;0.37;;;9.30;99.90;;;;;;5079729;28;20653;-57
2023/12/24 08:25:37;;;;;;;0.30;0.30;;;9.30;99.90;;;;;;5067791;28;20204;-58
2023/12/24 08:28:06;;;;;;;0.30;0.30;;;9.30;99.90;;;;;;5074927;28;20206;-59
2023/12/24 08:30:32;;;;;;;1.33;0.20;;;9.30;99.90;;;;;;5072408;28;20221;-59
2023/12/24 08:32:59;;;;;;;0.83;0.30;;;9.30;99.90;;;;;;5060645;28;20210;-59
2023/12/24 08:35:26;;;;;;;0.30;0.30;;;9.30;99.90;;;;;;5072562;28;20222;-58
2023/12/24 08:37:54;;;;;;;0.30;0.30;;;9.30;99.90;;;;;;5078343;28;20191;-57
2023/12/24 08:40:22;;;;;;;0.30;0.30;;;9.40;99.90;;;;;;5072991;28;20238;-59
2023/12/24 08:42:49;;;;;;;0.37;0.30;;;9.40;99.90;;;;;;5058347;28;20278;-58
2023/12/24 08:45:16;;;;;;;0.93;0.30;;;9.40;99.90;;;;;;5079935;28;20189;-59
2023/12/24 08:47:42;;;;;;;0.30;0.30;;;9.40;99.90;;;;;;5070254;28;20346;-58
2023/12/24 08:50:09;;;;;;;0.40;0.40;;;9.40;99.90;;;;;;5070214;28;20253;-55
2023/12/24 08:52:36;;;;;;;0.80;0.30;;;9.40;99.90;;;;;;5087873;28;21006;-57
2023/12/24 08:55:06;;;;;;;0.40;0.20;;;9.50;99.90;;;;;;5075329;28;20194;-58
2023/12/24 08:57:33;;;;;;;0.50;0.10;;;9.50;99.90;;;;;;5054685;28;20216;-60
2023/12/24 08:59:59;;;;;;;0.20;0.20;;;9.50;99.90;;;;;;5091119;28;20228;-59
2023/12/24 09:02:26;;;;;;;0.30;0.30;;;9.50;99.90;;;;;;5080596;28;20222;-59
2023/12/24 09:04:56;;;;;;;0.30;0.30;;;9.50;99.90;;;;;;5080370;28;20405;-58
2023/12/24 09:07:23;;;;;;;0.30;0.30;;;9.50;99.90;;;;;;5079548;28;20202;-59
2023/12/24 09:09:51;;;;;;;0.30;0.20;;;9.50;99.90;;;;;;5069911;28;20250;-58
2023/12/24 09:12:19;;;;;;;0.40;0.40;;;9.50;99.90;;;;;;5077297;28;20625;-60
2023/12/24 09:14:46;;;;;;;0.40;0.40;;;9.50;99.90;;;;;;5073046;28;20262;-58
2023/12/24 09:17:13;;;;;;;0.33;0.33;;;9.50;99.90;;;;;;5080052;28;20202;-59
2023/12/24 09:19:40;;;;;;;0.30;0.30;;;9.50;99.90;;;;;;5073455;28;20193;-59
2023/12/24 09:22:06;;;;;;;0.30;0.30;;;9.60;99.90;;;;;;5066628;28;20213;-57
2023/12/24 09:24:33;;;;;;;0.20;0.20;;;9.50;99.90;;;;;;5087545;28;20198;-59
2023/12/24 09:27:00;;;;;;;0.57;0.50;;;9.60;99.90;;;;;;5078805;28;20206;-58
2023/12/24 09:29:29;;;;;;;0.60;0.40;;;9.60;99.90;;;;;;5056992;28;20700;-58
2023/12/24 09:31:56;;;;;;;0.30;0.30;;;9.60;99.90;;;;;;5081685;28;20209;-58
2023/12/24 09:34:22;;;;;;;0.20;0.20;;;9.60;99.90;;;;;;5064983;28;20202;-59
2023/12/24 09:36:50;;;;;;;0.30;0.30;;;9.70;99.90;;;;;;5077303;28;20214;-57
2023/12/24 09:39:17;;;;;;;0.40;0.40;;;9.60;99.90;;;;;;5084612;28;20609;-59
2023/12/24 09:41:44;;;;;;;0.50;0.40;;;9.70;99.90;;;;;;5066521;28;20245;-57
2023/12/24 09:44:10;;;;;;;0.57;0.30;;;9.70;99.90;;;;;;5076670;28;20198;-59
2023/12/24 09:46:39;;;;;;;0.30;0.30;;;9.70;99.90;;;;;;5051738;28;20233;-57
2023/12/24 09:49:05;;;;;;;0.20;0.20;;;9.70;99.90;;;;;;5076444;28;20222;-59
2023/12/24 09:51:35;;;;;;;0.10;0.10;;;9.70;99.90;;;;;;5075541;28;20283;-59
2023/12/24 09:54:02;;;;;;;0.40;0.20;;;9.70;99.90;;;;;;5084157;28;20193;-57
2023/12/24 09:56:29;;;;;;;0.67;0.20;;;9.80;99.90;;;;;;5067133;28;20214;-60
2023/12/24 09:58:56;;;;;;;0.10;0.10;;;9.80;99.90;;;;;;5086731;28;20194;-59
2023/12/24 10:01:23;;;;;;;0.30;0.30;;;9.80;99.90;;;;;;5057825;28;20222;-60
2023/12/24 10:03:51;;;;;;;0.60;0.37;;;9.80;99.90;;;;;;5078514;28;20878;-58
2023/12/24 10:06:18;;;;;;;0.17;0.17;;;9.90;99.90;;;;;;5075742;28;20206;-59
2023/12/24 10:08:45;;;;;;;0.30;0.27;;;9.90;99.90;;;;;;5073041;28;21004;-58
2023/12/24 10:11:16;;;;;;;0.40;0.20;;;9.90;99.90;;;;;;5074906;28;20241;-58
2023/12/24 10:13:44;;;;;;;0.40;0.40;;;9.90;99.90;;;;;;5082209;28;20205;-55
2023/12/24 10:16:11;;;;;;;0.10;0.10;;;10.00;99.90;;;;;;5059815;28;20229;-58
2023/12/24 10:18:38;;;;;;;0.83;0.20;;;10.00;99.90;;;;;;5084569;28;20269;-56
2023/12/24 10:21:09;;;;;;;0.30;0.30;;;10.00;99.90;;;;;;5069799;28;20209;-57
2023/12/24 10:23:37;;;;;;;0.20;0.20;;;10.00;99.90;;;;;;5069987;28;20229;-58
2023/12/24 10:26:04;;;;;;;0.20;0.20;;;10.00;99.90;;;;;;5089417;28;20584;-59
2023/12/24 10:28:32;;;;;;;0.23;0.23;;;10.00;99.90;;;;;;5072737;28;20206;-59
2023/12/24 10:31:09;;;;;;;0.30;0.27;;;10.00;99.90;;;;;;5069318;28;20233;-58
2023/12/24 10:33:36;;;;;;;0.50;0.50;;;10.00;99.90;;;;;;5065896;28;20202;-59
2023/12/24 10:36:03;;;;;;;0.40;0.40;;;10.10;99.90;;;;;;5065912;28;20209;-55
2023/12/24 10:38:32;;;;;;;1.00;0.30;;;10.10;99.90;;;;;;5077667;28;20227;-58
2023/12/24 10:40:59;;;;;;;0.27;0.27;;;10.10;99.90;;;;;;5075908;28;20217;-56
2023/12/24 10:43:26;;;;;;;0.30;0.30;;;10.10;99.90;;;;;;5073448;28;20228;-59
2023/12/24 10:45:53;;;;;;;0.30;0.30;;;10.10;99.90;;;;;;5042938;28;21219;-57
2023/12/24 10:48:20;;;;;;;0.40;0.40;;;10.10;99.90;;;;;;5079932;28;20191;-58
2023/12/24 10:50:47;;;;;;;0.20;0.20;;;10.10;99.90;;;;;;5077593;28;20225;-57
2023/12/24 10:53:14;;;;;;;0.87;0.40;;;10.10;99.90;;;;;;5068668;28;20198;-58
2023/12/24 10:55:48;;;;;;;0.20;0.20;;;10.10;99.90;;;;;;5083151;28;20995;-59
2023/12/24 10:58:23;;;;;;;0.40;0.40;;;10.10;99.90;;;;;;5067056;28;20649;-57
2023/12/24 11:00:50;;;;;;;0.30;0.30;;;10.10;99.90;;;;;;5077273;28;20287;-59
2023/12/24 11:03:42;;;;;;;1.03;0.60;;;10.10;99.90;;;;;;5057833;28;20676;-58
2023/12/24 11:06:09;;;;;;;0.37;0.37;;;10.20;99.90;;;;;;5084185;28;20201;-58
2023/12/24 11:08:36;;;;;;;0.43;0.40;;;10.20;99.90;;;;;;5062670;28;20186;-58
2023/12/24 11:11:06;;;;;;;0.30;0.30;;;10.30;99.90;;;;;;5081426;28;20339;-58
2023/12/24 11:13:46;;;;;;;0.50;0.50;;;10.20;99.90;;;;;;5071208;28;20210;-57
2023/12/24 11:16:33;;;;;;;0.30;0.30;;;10.30;99.90;;;;;;5084711;28;20198;-57
2023/12/24 11:19:00;;;;;;;0.40;0.30;;;10.30;99.90;;;;;;5056927;28;20209;-60
2023/12/24 11:21:27;;;;;;;0.80;0.60;;;10.30;99.90;;;;;;5071966;28;20213;-57
2023/12/24 11:24:24;;;;;;;0.40;0.40;;;10.30;99.90;;;;;;5082356;28;20328;-59
2023/12/24 11:26:53;;;;;;;1.03;0.40;;;10.30;99.90;;;;;;5063695;28;20199;-58
2023/12/24 11:29:42;;;;;;;1.30;0.40;;;10.30;99.90;;;;;;5085230;28;20210;-57
2023/12/24 11:32:35;;;;;;;0.30;0.30;;;10.40;99.90;;;;;;5081186;28;20208;-58
2023/12/24 11:35:02;;;;;;;0.50;0.50;;;10.40;99.90;;;;;;5058805;28;20214;-58
2023/12/24 11:37:30;;;;;;;0.20;0.20;;;10.40;99.90;;;;;;5075392;28;20201;-58
2023/12/24 11:40:01;;;;;;;0.30;0.30;;;10.40;99.90;;;;;;5074622;28;20213;-56
2023/12/24 11:42:42;;;;;;;1.83;0.40;;;10.40;99.90;;;;;;5069739;28;20914;-57
2023/12/24 11:45:18;;;;;;;0.97;0.33;;;10.40;99.90;;;;;;5063603;28;20745;-57
2023/12/24 11:47:45;;;;;;;0.37;0.30;;;10.40;99.90;;;;;;5087976;28;20764;-58
2023/12/24 11:50:13;;;;;;;0.50;0.40;;;10.50;99.90;;;;;;5055818;28;20253;-57
2023/12/24 11:52:44;;;;;;;0.63;0.60;;;10.50;99.90;;;;;;5080075;28;20200;-58
2023/12/24 11:55:11;;;;;;;0.77;0.40;;;10.50;99.90;;;;;;5063700;28;20276;-57
2023/12/24 11:57:39;;;;;;;0.57;0.40;;;10.50;99.90;;;;;;5073224;28;20197;-58
2023/12/24 12:00:13;;;;;;;0.40;0.40;;;10.50;99.90;;;;;;5076958;28;20214;-59
2023/12/24 12:02:42;;;;;;;0.77;0.30;;;10.50;99.90;;;;;;5069998;28;20213;-58
2023/12/24 12:05:10;;;;;;;0.63;0.50;;;10.60;99.90;;;;;;5057662;28;20206;-58
2023/12/24 12:07:37;;;;;;;0.43;0.37;;;10.60;99.90;;;;;;5084922;28;20671;-56
2023/12/24 12:10:04;;;;;;;0.50;0.50;;;10.60;99.90;;;;;;5079369;28;20283;-59
2023/12/24 12:12:31;;;;;;;0.77;0.50;;;10.60;99.90;;;;;;5079300;28;20222;-59
2023/12/24 12:14:59;;;;;;;0.50;0.50;;;10.60;99.90;;;;;;5086167;28;20200;-57
2023/12/24 12:17:27;;;;;;;0.70;0.50;;;10.60;99.90;;;;;;5086480;28;20194;-59
2023/12/24 12:19:53;;;;;;;0.40;0.40;;;10.60;99.90;;;;;;5082371;28;20197;-58
2023/12/24 12:22:20;;;;;;;0.60;0.40;;;10.60;99.90;;;;;;5065244;28;20198;-59
2023/12/24 12:24:47;;;;;;;0.77;0.40;;;10.60;99.90;;;;;;5086480;28;20603;-59
2023/12/24 12:27:14;;;;;;;0.40;0.40;;;10.60;99.90;;;;;;5066872;28;20197;-59
2023/12/24 12:29:41;;;;;;;0.30;0.30;;;10.60;99.90;;;;;;5078050;28;20621;-59
2023/12/24 12:32:09;;;;;;;0.40;0.40;;;10.60;99.90;;;;;;5078627;28;20262;-58
2023/12/24 12:34:36;;;;;;;0.30;0.30;;;10.70;99.90;;;;;;5087752;28;20221;-59
2023/12/24 12:37:03;;;;;;;1.03;0.20;;;10.70;99.90;;;;;;5076257;28;20221;-58
2023/12/24 12:39:30;;;;;;;0.20;0.20;;;10.70;99.90;;;;;;5085602;28;20217;-59
2023/12/24 12:41:57;;;;;;;0.47;0.47;;;10.70;99.90;;;;;;5079903;28;20228;-58
2023/12/24 12:44:24;;;;;;;0.33;0.33;;;10.70;99.90;;;;;;5077556;28;20419;-59
2023/12/24 12:46:51;;;;;;;0.83;0.40;;;10.70;99.90;;;;;;5083511;28;20197;-59
2023/12/24 12:49:19;;;;;;;0.43;0.43;;;10.70;99.90;;;;;;5075541;28;20182;-59
2023/12/24 12:51:47;;;;;;;0.23;0.23;;;10.70;99.90;;;;;;5067558;28;20222;-59
2023/12/24 12:54:14;;;;;;;0.40;0.40;;;10.70;99.90;;;;;;5082747;28;20198;-59
2023/12/24 12:56:45;;;;;;;0.30;0.30;;;10.70;99.90;;;;;;5072558;28;20198;-59
2023/12/24 12:59:21;;;;;;;0.40;0.40;;;10.80;99.90;;;;;;5073569;28;20248;-57